LEAM

Almería International Airport

Almería, Spain
TAF LEAM 221400Z 2215/2315 20005KT 9999 SCT015 TX34/2315Z TN22/2303Z
Issued Valid From Valid To
Jul-22 @ 14:00 UTC
(6 hours ago)
Jul-22 @ 15:00 UTC
(5 hours ago)
Jul-23 @ 15:00 UTC
(in 19 hours)
Jul-22 @ 15:00 to Jul-23 @ 15:00
TAF LEAM 221400Z 2215/2315 20005KT 9999 SCT015 TX34/2315Z TN22/2303Z
Wind Visibility Clouds
200° at 5 knots 10,000+ meters
  • Scattered at 1,500' AGL
TAF LEAM 221400Z 2215/2315 20005KT 9999 SCT015 TX34/2315Z TN22/2303Z
Issued Jul-22 @ 14:00 UTC
(6 hours ago)
Valid From Jul-22 @ 15:00 UTC
(5 hours ago)
Valid To Jul-23 @ 15:00 UTC
(in 19 hours)
Jul-22 @ 15:00 - Jul-23 @ 15:00
Wind Visibility
200° at 5 knots 10,000+ meters
Clouds
  • Scattered at 1,500' AGL